Time;durP1;ratioP1;P1;durP2;ratioP2;P2;SDS_P1;SDS_P2;PMS_P1;PMS_P2;Temp;Humidity;BMP_temperature;BMP_pressure;BME280_temperature;BME280_humidity;BME280_pressure;Samples;Min_cycle;Max_cycle;Signal;HPM_P1;HPM_P2
2021/10/27 00:00:04;;;;;;;10.70;4.95;;;;;;;;;;5084095;28;20601;-73
2021/10/27 00:02:30;;;;;;;12.55;4.38;;;;;;;;;;5085816;28;20596;-72
2021/10/27 00:04:56;;;;;;;13.07;4.45;;;;;;;;;;5079659;28;20508;-71
2021/10/27 00:07:23;;;;;;;14.50;5.10;;;;;;;;;;5079824;28;20024;-72
2021/10/27 00:09:50;;;;;;;13.70;4.78;;;;;;;;;;5081228;28;20031;-72
2021/10/27 00:12:16;;;;;;;9.52;4.68;;;;;;;;;;5075017;28;20691;-73
2021/10/27 00:14:43;;;;;;;10.13;4.60;;;;;;;;;;5081517;28;20093;-71
2021/10/27 00:17:09;;;;;;;10.93;4.85;;;;;;;;;;5079458;28;20059;-71
2021/10/27 00:19:36;;;;;;;15.50;5.32;;;;;;;;;;5074867;28;20021;-71
2021/10/27 00:22:02;;;;;;;11.45;4.43;;;;;;;;;;5074652;28;20048;-72
2021/10/27 00:24:28;;;;;;;10.90;4.50;;;;;;;;;;5084413;28;20032;-72
2021/10/27 00:26:54;;;;;;;9.90;4.38;;;;;;;;;;5077012;28;20028;-72
2021/10/27 00:29:20;;;;;;;11.48;4.53;;;;;;;;;;5081427;28;20012;-72
2021/10/27 00:31:47;;;;;;;14.40;4.85;;;;;;;;;;5081938;28;20028;-72
2021/10/27 00:34:13;;;;;;;11.98;5.72;;;;;;;;;;5084757;28;20032;-72
2021/10/27 00:36:39;;;;;;;12.27;5.57;;;;;;;;;;5073108;28;20037;-71
2021/10/27 00:39:06;;;;;;;14.35;5.22;;;;;;;;;;5081254;28;20052;-71
2021/10/27 00:41:32;;;;;;;12.65;4.88;;;;;;;;;;5078515;28;20032;-71
2021/10/27 00:43:58;;;;;;;11.45;5.45;;;;;;;;;;5082786;28;20446;-72
2021/10/27 00:46:25;;;;;;;13.15;4.88;;;;;;;;;;5078753;28;20028;-73
2021/10/27 00:48:52;;;;;;;10.25;4.45;;;;;;;;;;5078685;28;20035;-72
2021/10/27 00:51:18;;;;;;;10.55;4.20;;;;;;;;;;5082387;28;20479;-71
2021/10/27 00:53:46;;;;;;;8.52;4.72;;;;;;;;;;5083957;28;20051;-73
2021/10/27 00:56:13;;;;;;;10.27;4.22;;;;;;;;;;5079767;28;20035;-71
2021/10/27 00:58:40;;;;;;;12.70;4.45;;;;;;;;;;5079013;28;20111;-72
2021/10/27 01:01:06;;;;;;;14.63;4.90;;;;;;;;;;5082006;28;20675;-72
2021/10/27 01:03:35;;;;;;;11.68;4.20;;;;;;;;;;5084963;28;20069;-71
2021/10/27 01:06:02;;;;;;;12.20;4.00;;;;;;;;;;5082677;28;20035;-71
2021/10/27 01:08:28;;;;;;;9.68;4.20;;;;;;;;;;5080113;28;20016;-72
2021/10/27 01:10:55;;;;;;;11.30;4.18;;;;;;;;;;5080322;28;20392;-72
2021/10/27 01:13:21;;;;;;;12.77;4.20;;;;;;;;;;5081788;28;20020;-72
2021/10/27 01:15:47;;;;;;;9.95;4.10;;;;;;;;;;5081127;28;20214;-72
2021/10/27 01:18:14;;;;;;;10.93;4.15;;;;;;;;;;5082159;28;20024;-72
2021/10/27 01:20:40;;;;;;;7.97;4.68;;;;;;;;;;5083781;28;20493;-72
2021/10/27 01:23:06;;;;;;;13.50;4.50;;;;;;;;;;5076796;28;20033;-72
2021/10/27 01:25:32;;;;;;;8.82;4.50;;;;;;;;;;5081458;28;20024;-72
2021/10/27 01:28:01;;;;;;;10.02;4.85;;;;;;;;;;5082308;28;20039;-72
2021/10/27 01:30:27;;;;;;;13.02;4.05;;;;;;;;;;5081447;28;20036;-72
2021/10/27 01:32:53;;;;;;;15.93;4.05;;;;;;;;;;5081331;28;20028;-72
2021/10/27 01:35:19;;;;;;;15.50;4.40;;;;;;;;;;5083441;28;20107;-73
2021/10/27 01:37:46;;;;;;;9.35;4.00;;;;;;;;;;5083006;28;20556;-72
2021/10/27 01:40:14;;;;;;;14.15;4.30;;;;;;;;;;5079699;28;20020;-72
2021/10/27 01:42:40;;;;;;;14.45;4.22;;;;;;;;;;5080353;28;20031;-72
2021/10/27 01:45:07;;;;;;;9.73;4.50;;;;;;;;;;5084980;28;20529;-72
2021/10/27 01:47:33;;;;;;;11.75;4.78;;;;;;;;;;5081234;28;20115;-73
2021/10/27 01:50:00;;;;;;;11.20;4.72;;;;;;;;;;5083711;28;20020;-72
2021/10/27 01:52:26;;;;;;;13.38;4.55;;;;;;;;;;5079841;28;20028;-72
2021/10/27 01:54:52;;;;;;;14.73;4.97;;;;;;;;;;5081595;28;20020;-72
2021/10/27 01:57:19;;;;;;;8.02;4.22;;;;;;;;;;5082041;28;20476;-74
2021/10/27 01:59:45;;;;;;;10.85;4.32;;;;;;;;;;5079816;28;20102;-73
2021/10/27 02:02:11;;;;;;;12.43;4.40;;;;;;;;;;5080159;28;20032;-73
2021/10/27 02:04:38;;;;;;;10.85;3.85;;;;;;;;;;5079240;28;20865;-73
2021/10/27 02:07:04;;;;;;;9.50;4.43;;;;;;;;;;5076775;28;20025;-72
2021/10/27 02:09:31;;;;;;;11.27;4.20;;;;;;;;;;5082829;28;20116;-72
2021/10/27 02:11:58;;;;;;;10.95;4.55;;;;;;;;;;5083193;28;20376;-72
2021/10/27 02:14:24;;;;;;;9.75;3.90;;;;;;;;;;5078259;28;20115;-72
2021/10/27 02:16:50;;;;;;;11.90;3.90;;;;;;;;;;5083308;28;20380;-72
2021/10/27 02:19:16;;;;;;;9.18;4.28;;;;;;;;;;5082049;28;20024;-73
2021/10/27 02:21:43;;;;;;;9.82;3.45;;;;;;;;;;5080843;28;20030;-73
2021/10/27 02:24:09;;;;;;;7.88;3.95;;;;;;;;;;5080867;28;20026;-72
2021/10/27 02:26:35;;;;;;;7.35;4.10;;;;;;;;;;5078183;28;20028;-72
2021/10/27 02:29:01;;;;;;;8.02;4.35;;;;;;;;;;5081245;28;20032;-73
2021/10/27 02:31:27;;;;;;;10.73;3.78;;;;;;;;;;5081951;28;20490;-72
2021/10/27 02:33:54;;;;;;;9.65;4.05;;;;;;;;;;5079903;28;20020;-73
2021/10/27 02:36:20;;;;;;;13.30;4.20;;;;;;;;;;5078944;28;20275;-72
2021/10/27 02:38:47;;;;;;;6.32;3.75;;;;;;;;;;5082685;28;20058;-72
2021/10/27 02:41:13;;;;;;;9.05;4.15;;;;;;;;;;5077593;28;20032;-73
2021/10/27 02:43:40;;;;;;;10.25;4.63;;;;;;;;;;5079022;28;20060;-72
2021/10/27 02:46:06;;;;;;;12.77;4.53;;;;;;;;;;5082747;28;20027;-73
2021/10/27 02:48:32;;;;;;;9.65;3.88;;;;;;;;;;5079199;28;20096;-73
2021/10/27 02:50:58;;;;;;;9.77;4.00;;;;;;;;;;5080062;28;20039;-73
2021/10/27 02:53:24;;;;;;;8.48;4.35;;;;;;;;;;5074364;28;20598;-73
2021/10/27 02:55:51;;;;;;;8.35;4.10;;;;;;;;;;5079601;28;20031;-73
2021/10/27 02:58:17;;;;;;;11.93;3.97;;;;;;;;;;5082170;28;20043;-73
2021/10/27 03:00:43;;;;;;;9.10;3.88;;;;;;;;;;5077221;28;20384;-73
2021/10/27 03:03:09;;;;;;;6.82;3.65;;;;;;;;;;5073529;28;20029;-73
2021/10/27 03:05:35;;;;;;;8.60;3.60;;;;;;;;;;5072199;28;20090;-72
2021/10/27 03:08:01;;;;;;;8.55;4.40;;;;;;;;;;5070826;28;20027;-73
2021/10/27 03:10:27;;;;;;;11.10;4.25;;;;;;;;;;5064251;28;20089;-72
2021/10/27 03:12:54;;;;;;;10.77;4.38;;;;;;;;;;5068715;28;20606;-71
2021/10/27 03:15:20;;;;;;;8.82;3.95;;;;;;;;;;5073626;28;20033;-72
2021/10/27 03:17:46;;;;;;;7.82;4.00;;;;;;;;;;5075004;28;20028;-73
2021/10/27 03:20:13;;;;;;;7.68;3.45;;;;;;;;;;5072076;28;20085;-73
2021/10/27 03:22:40;;;;;;;11.15;4.20;;;;;;;;;;5069921;28;20032;-72
2021/10/27 03:25:06;;;;;;;6.65;3.70;;;;;;;;;;5073444;28;20028;-71
2021/10/27 03:27:32;;;;;;;9.40;3.20;;;;;;;;;;5068639;28;20032;-73
2021/10/27 03:29:59;;;;;;;7.70;3.65;;;;;;;;;;5072388;28;20098;-72
2021/10/27 03:32:26;;;;;;;16.42;4.07;;;;;;;;;;5075280;28;20032;-73
2021/10/27 03:34:52;;;;;;;8.35;3.15;;;;;;;;;;5070765;28;20035;-73
2021/10/27 03:37:18;;;;;;;12.63;3.55;;;;;;;;;;5072660;28;20035;-72
2021/10/27 03:39:44;;;;;;;10.15;3.58;;;;;;;;;;5068981;28;20619;-73
2021/10/27 03:42:10;;;;;;;15.57;4.10;;;;;;;;;;5068451;28;20638;-72
2021/10/27 03:44:37;;;;;;;11.68;4.05;;;;;;;;;;5072979;28;20043;-73
2021/10/27 03:47:03;;;;;;;8.85;4.30;;;;;;;;;;5073053;28;20040;-71
2021/10/27 03:49:29;;;;;;;7.68;3.80;;;;;;;;;;5074407;28;20964;-72
2021/10/27 03:51:55;;;;;;;9.38;3.50;;;;;;;;;;5076377;28;20353;-73
2021/10/27 03:54:21;;;;;;;11.77;4.07;;;;;;;;;;5072762;28;20507;-72
2021/10/27 03:56:48;;;;;;;7.72;3.53;;;;;;;;;;5080083;28;20036;-72
2021/10/27 03:59:15;;;;;;;7.35;3.72;;;;;;;;;;5072279;28;20495;-72
2021/10/27 04:01:42;;;;;;;9.80;3.70;;;;;;;;;;5083852;28;20128;-73
2021/10/27 04:04:08;;;;;;;9.90;3.33;;;;;;;;;;5082640;28;20150;-73
2021/10/27 04:06:34;;;;;;;7.15;3.30;;;;;;;;;;5079748;28;20032;-73
2021/10/27 04:09:00;;;;;;;10.10;3.75;;;;;;;;;;5079510;28;20024;-73
2021/10/27 04:11:26;;;;;;;7.10;3.47;;;;;;;;;;5077977;28;20077;-72
2021/10/27 04:13:53;;;;;;;5.65;3.40;;;;;;;;;;5083950;28;20024;-73
2021/10/27 04:16:19;;;;;;;9.35;3.22;;;;;;;;;;5083506;28;20027;-73
2021/10/27 04:18:45;;;;;;;9.65;3.45;;;;;;;;;;5074146;28;20032;-73
2021/10/27 04:21:11;;;;;;;11.07;3.95;;;;;;;;;;5076845;28;20032;-73
2021/10/27 04:23:37;;;;;;;5.35;2.90;;;;;;;;;;5081558;28;20035;-72
2021/10/27 04:26:03;;;;;;;8.88;3.30;;;;;;;;;;5081491;28;20032;-72
2021/10/27 04:28:30;;;;;;;11.07;3.17;;;;;;;;;;5073466;28;20110;-73
2021/10/27 04:30:56;;;;;;;10.20;3.90;;;;;;;;;;5076697;28;20103;-72
2021/10/27 04:33:23;;;;;;;7.35;3.78;;;;;;;;;;5080153;28;20407;-72
2021/10/27 04:35:52;;;;;;;9.27;3.90;;;;;;;;;;5072174;28;20036;-73
2021/10/27 04:38:20;;;;;;;7.60;4.15;;;;;;;;;;5073961;28;20054;-73
2021/10/27 04:40:46;;;;;;;9.45;4.35;;;;;;;;;;5069925;28;20532;-72
2021/10/27 04:43:12;;;;;;;13.68;4.25;;;;;;;;;;5072933;28;20032;-73
2021/10/27 04:45:39;;;;;;;10.68;3.70;;;;;;;;;;5072333;28;20175;-73
2021/10/27 04:48:05;;;;;;;9.50;4.70;;;;;;;;;;5067667;28;20027;-73
2021/10/27 04:50:32;;;;;;;8.82;4.60;;;;;;;;;;5068743;28;20028;-71
2021/10/27 04:52:58;;;;;;;10.00;4.40;;;;;;;;;;5070866;28;20052;-73
2021/10/27 04:55:24;;;;;;;11.93;4.32;;;;;;;;;;5071299;28;20036;-72
2021/10/27 04:57:50;;;;;;;11.50;4.40;;;;;;;;;;5076100;28;20032;-72
2021/10/27 05:00:17;;;;;;;7.38;4.22;;;;;;;;;;5070704;28;20389;-71
2021/10/27 05:02:43;;;;;;;8.98;4.90;;;;;;;;;;5065549;28;20536;-71
2021/10/27 05:05:10;;;;;;;8.00;4.28;;;;;;;;;;5073117;28;20540;-72
2021/10/27 05:07:37;;;;;;;11.10;4.38;;;;;;;;;;5070082;28;20032;-73
2021/10/27 05:10:03;;;;;;;12.82;4.40;;;;;;;;;;5070731;28;20032;-72
2021/10/27 05:12:29;;;;;;;7.88;4.50;;;;;;;;;;5072191;28;20038;-72
2021/10/27 05:14:56;;;;;;;11.18;4.65;;;;;;;;;;5072480;28;20069;-72
2021/10/27 05:17:22;;;;;;;10.38;4.82;;;;;;;;;;5068567;28;20039;-71
2021/10/27 05:19:48;;;;;;;8.63;4.93;;;;;;;;;;5073299;28;20216;-72
2021/10/27 05:22:16;;;;;;;8.43;4.65;;;;;;;;;;5070466;28;20028;-72
2021/10/27 05:24:43;;;;;;;8.45;4.85;;;;;;;;;;5070735;28;20081;-72
2021/10/27 05:27:10;;;;;;;13.32;4.75;;;;;;;;;;5072861;28;20024;-72
2021/10/27 05:29:37;;;;;;;11.20;5.10;;;;;;;;;;5070569;28;20193;-73
2021/10/27 05:32:06;;;;;;;16.80;6.15;;;;;;;;;;5072513;28;20190;-72
2021/10/27 05:34:32;;;;;;;13.02;6.63;;;;;;;;;;5076160;28;20110;-72
2021/10/27 05:36:58;;;;;;;12.40;5.72;;;;;;;;;;5068633;28;20054;-72
2021/10/27 05:39:24;;;;;;;11.77;6.30;;;;;;;;;;5071431;28;20051;-72
2021/10/27 05:41:50;;;;;;;9.55;5.20;;;;;;;;;;5070963;28;20032;-73
2021/10/27 05:44:20;;;;;;;11.30;5.70;;;;;;;;;;5072008;28;20023;-74
2021/10/27 05:46:48;;;;;;;12.80;5.38;;;;;;;;;;5070476;28;20583;-72
2021/10/27 05:51:50;;;;;;;14.27;5.50;;;;;;;;;;5066370;28;20156;-73
2021/10/27 05:57:02;;;;;;;8.45;5.38;;;;;;;;;;5071424;28;20350;-72
2021/10/27 05:59:28;;;;;;;9.98;5.18;;;;;;;;;;5074263;28;20486;-73
2021/10/27 06:01:54;;;;;;;14.88;4.75;;;;;;;;;;5072826;28;20136;-72
2021/10/27 06:04:20;;;;;;;14.65;4.80;;;;;;;;;;5069927;28;20047;-73
2021/10/27 06:06:47;;;;;;;10.45;5.47;;;;;;;;;;5071294;28;20088;-73
2021/10/27 06:09:15;;;;;;;7.60;4.75;;;;;;;;;;5071693;28;20481;-72
2021/10/27 06:11:42;;;;;;;17.23;5.82;;;;;;;;;;5072454;28;20065;-73
2021/10/27 06:14:09;;;;;;;11.82;5.40;;;;;;;;;;5071072;28;20028;-74
2021/10/27 06:16:35;;;;;;;10.20;4.80;;;;;;;;;;5074514;28;20027;-73
2021/10/27 06:19:01;;;;;;;7.85;4.63;;;;;;;;;;5079344;28;20070;-72
2021/10/27 06:21:28;;;;;;;7.90;4.68;;;;;;;;;;5078901;28;20028;-73
2021/10/27 06:23:54;;;;;;;11.13;5.45;;;;;;;;;;5078903;28;20020;-72
2021/10/27 06:26:22;;;;;;;6.65;4.90;;;;;;;;;;5076900;28;20542;-72
2021/10/27 06:31:34;;;;;;;11.88;5.40;;;;;;;;;;5076647;28;20043;-72
2021/10/27 06:47:30;;;;;;;8.30;5.30;;;;;;;;;;5077167;28;20498;-72
2021/10/27 06:49:56;;;;;;;12.73;5.13;;;;;;;;;;5078760;28;20038;-74
2021/10/27 06:52:22;;;;;;;13.32;4.88;;;;;;;;;;5076980;28;20111;-73
2021/10/27 06:54:51;;;;;;;7.90;3.72;;;;;;;;;;5078715;28;20610;-73
2021/10/27 06:57:21;;;;;;;11.27;3.95;;;;;;;;;;5078505;28;20127;-73
2021/10/27 06:59:49;;;;;;;8.15;4.03;;;;;;;;;;5077454;28;20032;-73
2021/10/27 07:02:35;;;;;;;9.25;3.45;;;;;;;;;;5073639;28;20024;-73
2021/10/27 07:15:36;;;;;;;8.48;3.50;;;;;;;;;;5077428;28;20092;-73
2021/10/27 07:18:03;;;;;;;11.57;3.95;;;;;;;;;;5078483;28;20040;-73
2021/10/27 07:20:30;;;;;;;8.40;3.90;;;;;;;;;;5075426;28;20021;-71
2021/10/27 07:23:00;;;;;;;8.73;3.80;;;;;;;;;;5078085;28;20092;-72
2021/10/27 07:25:27;;;;;;;10.43;3.80;;;;;;;;;;5081991;28;20028;-74
2021/10/27 07:27:53;;;;;;;10.20;3.90;;;;;;;;;;5080969;28;20024;-75
2021/10/27 07:30:19;;;;;;;7.93;3.85;;;;;;;;;;5080772;28;20024;-77
2021/10/27 07:32:52;;;;;;;11.30;4.05;;;;;;;;;;5082653;28;20128;-74
2021/10/27 07:35:26;;;;;;;7.35;4.22;;;;;;;;;;5081942;28;20028;-75
2021/10/27 07:40:39;;;;;;;8.57;4.13;;;;;;;;;;5080377;28;20287;-79
2021/10/27 07:43:12;;;;;;;11.70;3.85;;;;;;;;;;5079339;28;20041;-72
2021/10/27 07:48:19;;;;;;;7.43;3.90;;;;;;;;;;4391317;27;20059;-73
2021/10/27 07:50:45;;;;;;;9.63;4.50;;;;;;;;;;5100735;27;20030;-73
2021/10/27 07:53:13;;;;;;;8.63;4.28;;;;;;;;;;5100649;28;20379;-73
2021/10/27 07:55:41;;;;;;;12.82;4.93;;;;;;;;;;5101135;28;20559;-73
2021/10/27 07:58:07;;;;;;;10.52;3.90;;;;;;;;;;5101312;28;20035;-72
2021/10/27 08:00:34;;;;;;;12.48;4.25;;;;;;;;;;5099934;28;20278;-71
2021/10/27 08:03:03;;;;;;;9.88;4.43;;;;;;;;;;5101461;28;20205;-72
2021/10/27 08:05:39;;;;;;;7.80;3.65;;;;;;;;;;5099379;28;20027;-73
2021/10/27 08:08:06;;;;;;;7.82;3.67;;;;;;;;;;5101681;28;20526;-72
2021/10/27 08:10:32;;;;;;;13.05;5.00;;;;;;;;;;5099994;28;20156;-72
2021/10/27 08:12:59;;;;;;;10.57;5.30;;;;;;;;;;5099671;28;20023;-72
2021/10/27 08:15:26;;;;;;;13.68;6.80;;;;;;;;;;5101708;28;20403;-72
2021/10/27 08:17:52;;;;;;;9.23;5.85;;;;;;;;;;5101575;28;20031;-73
2021/10/27 08:20:19;;;;;;;14.20;6.30;;;;;;;;;;5101318;28;20057;-72
2021/10/27 08:22:47;;;;;;;13.10;5.72;;;;;;;;;;5101667;28;20093;-72
2021/10/27 08:25:37;;;;;;;8.80;5.00;;;;;;;;;;5101892;28;20488;-72
2021/10/27 08:28:04;;;;;;;12.43;4.93;;;;;;;;;;5101296;28;20031;-70
2021/10/27 08:30:35;;;;;;;13.27;5.03;;;;;;;;;;5101608;28;20031;-71
2021/10/27 08:33:04;;;;;;;8.15;5.63;;;;;;;;;;5102458;28;20046;-70
2021/10/27 08:35:31;;;;;;;7.55;4.70;;;;;;;;;;5100060;28;20054;-70
2021/10/27 08:37:58;;;;;;;12.07;4.47;;;;;;;;;;5101040;28;20195;-71
2021/10/27 08:40:26;;;;;;;10.82;4.95;;;;;;;;;;5101243;28;20023;-71
2021/10/27 08:42:52;;;;;;;8.52;5.20;;;;;;;;;;5101310;28;20059;-70
2021/10/27 08:45:18;;;;;;;6.85;4.95;;;;;;;;;;5099375;28;20467;-70
2021/10/27 08:47:49;;;;;;;8.43;5.13;;;;;;;;;;5099012;28;20024;-70
2021/10/27 08:50:15;;;;;;;7.85;5.00;;;;;;;;;;5100780;28;20573;-71
2021/10/27 08:52:43;;;;;;;8.40;5.22;;;;;;;;;;5100063;28;20126;-71
2021/10/27 08:55:12;;;;;;;13.55;5.38;;;;;;;;;;5099238;28;20016;-70
2021/10/27 08:57:39;;;;;;;8.45;4.88;;;;;;;;;;5100520;28;20487;-70
2021/10/27 09:01:10;;;;;;;9.05;4.93;;;;;;;;;;5100365;28;20098;-70
2021/10/27 09:44:32;;;;;;;10.60;5.35;;;;;;;;;;5095796;28;20057;-70
2021/10/27 09:56:19;;;;;;;7.38;4.00;;;;;;;;;;5099450;28;20450;-70
2021/10/27 10:06:30;;;;;;;10.23;3.53;;;;;;;;;;5099732;28;20092;-71
2021/10/27 10:08:57;;;;;;;5.80;3.97;;;;;;;;;;5099734;28;20043;-71
2021/10/27 10:11:27;;;;;;;8.43;3.85;;;;;;;;;;5099099;28;20024;-69
2021/10/27 10:14:02;;;;;;;9.13;3.35;;;;;;;;;;5096193;28;20019;-70
2021/10/27 10:16:28;;;;;;;9.00;3.58;;;;;;;;;;5098555;28;20031;-70
2021/10/27 10:18:58;;;;;;;5.80;3.33;;;;;;;;;;5099385;28;20030;-70
2021/10/27 10:21:29;;;;;;;7.45;3.67;;;;;;;;;;5098901;28;20486;-70
2021/10/27 10:24:14;;;;;;;5.70;3.85;;;;;;;;;;5095891;28;20054;-72
2021/10/27 10:26:42;;;;;;;5.90;4.32;;;;;;;;;;5096082;28;20039;-70
2021/10/27 10:29:08;;;;;;;6.68;4.15;;;;;;;;;;5096790;28;20042;-70
2021/10/27 10:31:37;;;;;;;9.10;3.88;;;;;;;;;;5099583;28;20028;-71
2021/10/27 10:34:10;;;;;;;5.93;3.60;;;;;;;;;;5099476;28;20098;-70
2021/10/27 10:36:41;;;;;;;7.55;3.88;;;;;;;;;;5099612;28;20035;-70
2021/10/27 10:39:40;;;;;;;9.70;4.30;;;;;;;;;;5097404;28;20026;-70
2021/10/27 10:42:30;;;;;;;7.00;3.75;;;;;;;;;;5086749;28;20260;-70
2021/10/27 11:38:23;;;;;;;8.77;5.50;;;;;;;;;;5082804;28;20059;-70
2021/10/27 11:40:56;;;;;;;6.80;5.45;;;;;;;;;;5085082;28;20069;-69
2021/10/27 11:45:57;;;;;;;7.75;4.70;;;;;;;;;;5102133;28;20039;-71
2021/10/27 11:51:13;;;;;;;9.13;4.60;;;;;;;;;;5103474;28;20130;-70
2021/10/27 11:53:40;;;;;;;10.15;4.60;;;;;;;;;;5090320;28;20075;-70
2021/10/27 11:56:13;;;;;;;8.43;4.40;;;;;;;;;;5082436;28;20281;-71
2021/10/27 11:58:42;;;;;;;11.20;5.07;;;;;;;;;;5093097;28;20924;-70
2021/10/27 12:01:13;;;;;;;10.85;5.00;;;;;;;;;;5102380;28;20027;-70
2021/10/27 12:03:41;;;;;;;11.60;4.43;;;;;;;;;;5100326;28;20034;-71
2021/10/27 12:06:15;;;;;;;6.60;4.50;;;;;;;;;;5101869;28;20027;-71
2021/10/27 12:11:33;;;;;;;8.10;3.85;;;;;;;;;;5101964;28;20027;-71
2021/10/27 12:14:24;;;;;;;8.55;3.72;;;;;;;;;;5100998;28;20495;-70
2021/10/27 12:19:21;;;;;;;6.32;3.42;;;;;;;;;;5101539;28;20024;-70
2021/10/27 12:21:48;;;;;;;6.68;3.53;;;;;;;;;;5101572;28;20031;-70
2021/10/27 12:24:15;;;;;;;8.10;3.97;;;;;;;;;;5096881;28;20445;-70
2021/10/27 12:26:55;;;;;;;6.93;4.28;;;;;;;;;;5100034;28;20035;-72
2021/10/27 12:29:27;;;;;;;6.82;3.80;;;;;;;;;;5100467;28;20024;-71
2021/10/27 12:32:02;;;;;;;7.05;3.95;;;;;;;;;;5099829;28;20406;-70
2021/10/27 12:34:29;;;;;;;7.53;3.97;;;;;;;;;;5101384;28;20027;-70
2021/10/27 12:37:00;;;;;;;7.10;3.75;;;;;;;;;;5101975;28;20026;-70
2021/10/27 12:39:41;;;;;;;8.83;3.97;;;;;;;;;;5099955;28;20047;-70
2021/10/27 12:42:13;;;;;;;7.00;3.80;;;;;;;;;;5103845;28;20488;-70
2021/10/27 12:44:49;;;;;;;7.05;4.10;;;;;;;;;;5103168;28;20047;-70
2021/10/27 12:47:16;;;;;;;6.63;4.60;;;;;;;;;;5102274;28;20094;-70
2021/10/27 12:49:44;;;;;;;12.80;4.22;;;;;;;;;;5102767;28;20036;-71
2021/10/27 12:52:19;;;;;;;4.20;3.47;;;;;;;;;;5100790;28;20102;-70
2021/10/27 12:54:45;;;;;;;6.68;4.10;;;;;;;;;;5101284;27;20031;-70
2021/10/27 12:57:11;;;;;;;7.85;4.80;;;;;;;;;;5102341;28;20028;-70
2021/10/27 12:59:38;;;;;;;10.65;4.47;;;;;;;;;;5101443;28;20028;-69
2021/10/27 13:02:25;;;;;;;6.88;4.43;;;;;;;;;;5101883;28;20030;-69
2021/10/27 13:05:00;;;;;;;10.80;4.40;;;;;;;;;;5099335;28;20023;-70
2021/10/27 13:07:34;;;;;;;9.48;4.78;;;;;;;;;;5101983;28;20084;-69
2021/10/27 13:10:40;;;;;;;5.57;4.57;;;;;;;;;;5100069;28;20026;-69
2021/10/27 13:13:00;;;;;;;10.95;4.93;;;;;;;;;;5099255;28;20641;-70
2021/10/27 13:16:18;;;;;;;5.57;3.90;;;;;;;;;;5102111;28;20141;-70
2021/10/27 13:18:34;;;;;;;8.10;4.55;;;;;;;;;;5089069;28;20483;-70
2021/10/27 13:21:31;;;;;;;7.47;5.05;;;;;;;;;;5100654;28;20036;-70
2021/10/27 13:32:00;;;;;;;11.95;5.45;;;;;;;;;;5098200;28;20089;-71
2021/10/27 13:34:27;;;;;;;10.55;5.32;;;;;;;;;;5101674;28;20031;-72
2021/10/27 13:36:54;;;;;;;9.43;5.43;;;;;;;;;;5098422;28;20172;-71
2021/10/27 13:39:22;;;;;;;11.23;5.68;;;;;;;;;;5099148;28;20521;-72
2021/10/27 13:41:55;;;;;;;8.55;4.72;;;;;;;;;;5099438;28;20028;-71
2021/10/27 13:44:24;;;;;;;11.00;5.57;;;;;;;;;;5100420;28;20072;-71
2021/10/27 14:08:31;;;;;;;8.93;6.10;;;;;;;;;;5098282;28;20669;-71
2021/10/27 14:13:45;;;;;;;17.08;7.55;;;;;;;;;;5099097;28;20039;-72
2021/10/27 15:21:08;;;;;;;8.52;5.40;;;;;;;;;;5101453;28;20043;-71
2021/10/27 15:29:35;;;;;;;9.65;5.22;;;;;;;;;;5099620;28;20119;-71
2021/10/27 15:31:54;;;;;;;6.18;4.38;;;;;;;;;;5092425;28;20128;-71
2021/10/27 15:37:16;;;;;;;7.20;3.70;;;;;;;;;;5099986;28;20492;-71
2021/10/27 15:51:13;;;;;;;14.32;4.15;;;;;;;;;;5039580;28;20147;-71
2021/10/27 15:53:40;;;;;;;7.57;4.10;;;;;;;;;;5079379;27;20080;-71
2021/10/27 15:56:06;;;;;;;7.60;4.13;;;;;;;;;;5103847;28;20114;-71
2021/10/27 15:58:32;;;;;;;5.40;3.78;;;;;;;;;;5104160;28;20450;-71
2021/10/27 16:00:59;;;;;;;8.20;3.75;;;;;;;;;;5103230;28;20028;-72
2021/10/27 16:03:25;;;;;;;8.20;3.92;;;;;;;;;;5104694;28;20052;-71
2021/10/27 16:05:55;;;;;;;6.97;4.18;;;;;;;;;;5102874;28;20291;-73
2021/10/27 16:08:22;;;;;;;9.52;3.72;;;;;;;;;;5102374;28;20513;-71
2021/10/27 16:10:51;;;;;;;9.40;3.78;;;;;;;;;;5103826;28;20068;-71
2021/10/27 16:13:17;;;;;;;8.77;3.67;;;;;;;;;;5103070;28;20409;-71
2021/10/27 16:16:03;;;;;;;7.88;3.90;;;;;;;;;;5101830;28;20028;-71
2021/10/27 16:18:31;;;;;;;7.70;4.05;;;;;;;;;;5102766;28;20503;-71
2021/10/27 16:20:58;;;;;;;8.95;4.30;;;;;;;;;;5104257;28;20150;-71
2021/10/27 16:23:24;;;;;;;8.65;4.25;;;;;;;;;;5103033;28;20035;-71
2021/10/27 16:25:52;;;;;;;8.55;4.53;;;;;;;;;;5102246;28;20149;-71
2021/10/27 16:28:18;;;;;;;8.50;4.53;;;;;;;;;;5104267;28;20022;-71
2021/10/27 16:30:45;;;;;;;11.05;4.35;;;;;;;;;;5104055;28;20034;-71
2021/10/27 16:33:13;;;;;;;13.35;4.93;;;;;;;;;;5102471;28;20111;-72
2021/10/27 16:35:40;;;;;;;13.38;4.80;;;;;;;;;;5104356;28;20035;-71
2021/10/27 16:38:06;;;;;;;11.18;4.00;;;;;;;;;;5104394;28;20530;-71
2021/10/27 16:40:32;;;;;;;9.85;3.67;;;;;;;;;;5103942;28;20052;-71
2021/10/27 16:42:59;;;;;;;10.85;4.40;;;;;;;;;;5103877;28;20027;-71
2021/10/27 16:45:25;;;;;;;9.02;4.40;;;;;;;;;;5102277;28;20023;-71
2021/10/27 16:47:51;;;;;;;7.93;4.03;;;;;;;;;;5103885;28;20052;-71
2021/10/27 16:50:18;;;;;;;10.80;4.55;;;;;;;;;;5103871;28;20027;-71
2021/10/27 16:52:45;;;;;;;8.23;4.50;;;;;;;;;;5103965;28;20288;-72
2021/10/27 16:55:18;;;;;;;9.25;4.25;;;;;;;;;;5103360;28;20166;-70
2021/10/27 16:57:45;;;;;;;8.30;4.15;;;;;;;;;;5103783;28;20096;-71
2021/10/27 17:00:11;;;;;;;12.70;4.75;;;;;;;;;;5101782;28;20019;-71
2021/10/27 17:02:38;;;;;;;8.85;4.35;;;;;;;;;;5103578;28;20387;-71
2021/10/27 17:05:04;;;;;;;8.27;3.85;;;;;;;;;;5103462;28;20080;-71
2021/10/27 17:07:34;;;;;;;9.30;4.55;;;;;;;;;;5103592;28;20466;-71
2021/10/27 17:10:01;;;;;;;9.10;4.70;;;;;;;;;;5101699;28;20235;-71
2021/10/27 17:12:27;;;;;;;11.60;4.63;;;;;;;;;;5103466;28;20463;-71
2021/10/27 17:14:53;;;;;;;8.20;4.65;;;;;;;;;;5104224;28;20110;-71
2021/10/27 17:17:19;;;;;;;7.95;4.38;;;;;;;;;;5103753;28;20043;-72
2021/10/27 17:19:46;;;;;;;9.85;4.38;;;;;;;;;;5102638;28;20027;-72
2021/10/27 17:22:13;;;;;;;7.75;4.43;;;;;;;;;;5102171;28;20219;-71
2021/10/27 17:24:39;;;;;;;9.00;4.53;;;;;;;;;;5102105;28;20030;-72
2021/10/27 17:27:06;;;;;;;6.78;3.58;;;;;;;;;;5103071;28;20019;-71
2021/10/27 17:29:32;;;;;;;8.20;3.75;;;;;;;;;;5102644;28;20024;-72
2021/10/27 17:31:59;;;;;;;9.38;4.78;;;;;;;;;;5103029;28;20016;-72
2021/10/27 17:34:26;;;;;;;9.70;4.10;;;;;;;;;;5099373;28;20114;-73
2021/10/27 17:36:52;;;;;;;9.20;4.18;;;;;;;;;;5100041;28;20031;-71
2021/10/27 17:39:18;;;;;;;10.05;4.07;;;;;;;;;;5101750;28;20015;-71
2021/10/27 17:41:47;;;;;;;6.55;3.90;;;;;;;;;;5099559;28;20502;-72
2021/10/27 17:44:14;;;;;;;9.15;4.47;;;;;;;;;;5092525;28;20043;-72
2021/10/27 17:46:48;;;;;;;7.18;3.97;;;;;;;;;;5081790;28;20084;-72
2021/10/27 17:49:26;;;;;;;14.48;4.57;;;;;;;;;;5083476;28;20040;-71
2021/10/27 18:00:07;;;;;;;7.00;3.90;;;;;;;;;;5081956;28;20119;-74
2021/10/27 18:02:35;;;;;;;7.05;4.43;;;;;;;;;;5083628;28;20094;-71
2021/10/27 18:05:03;;;;;;;8.60;4.50;;;;;;;;;;5102870;28;20407;-72
2021/10/27 18:07:31;;;;;;;10.55;4.22;;;;;;;;;;5102450;28;20028;-72
2021/10/27 18:09:57;;;;;;;9.23;4.65;;;;;;;;;;5103039;27;20127;-72
2021/10/27 18:12:26;;;;;;;9.18;4.70;;;;;;;;;;5101397;27;20504;-72
2021/10/27 18:14:53;;;;;;;7.43;4.18;;;;;;;;;;5102807;28;20038;-72
2021/10/27 18:17:23;;;;;;;8.95;4.32;;;;;;;;;;5104104;28;20070;-72
2021/10/27 18:19:53;;;;;;;6.53;4.22;;;;;;;;;;5102866;28;20028;-72
2021/10/27 18:22:26;;;;;;;7.45;4.50;;;;;;;;;;5103361;28;20929;-72
2021/10/27 18:38:11;;;;;;;7.03;3.95;;;;;;;;;;5101510;28;20144;-71
2021/10/27 18:43:18;;;;;;;7.95;4.10;;;;;;;;;;5102527;28;20375;-72
2021/10/27 18:45:50;;;;;;;8.80;4.05;;;;;;;;;;5101241;28;20032;-72
2021/10/27 18:48:17;;;;;;;7.60;4.70;;;;;;;;;;5100151;28;20099;-72
2021/10/27 18:50:53;;;;;;;6.80;4.40;;;;;;;;;;5095220;28;20108;-71
2021/10/27 18:58:31;;;;;;;6.63;4.25;;;;;;;;;;5108246;28;20169;-74
2021/10/27 19:01:04;;;;;;;8.80;4.22;;;;;;;;;;5102449;28;20030;-72
2021/10/27 19:10:31;;;;;;;8.02;4.20;;;;;;;;;;5099145;28;20039;-72
2021/10/27 19:11:49;;;;;;;8.95;4.25;;;;;;;;;;5090549;28;20391;-72
2021/10/27 19:14:25;;;;;;;10.90;4.40;;;;;;;;;;5102602;28;20096;-72
2021/10/27 19:16:52;;;;;;;8.88;4.78;;;;;;;;;;5106763;28;20027;-72
2021/10/27 19:19:19;;;;;;;13.05;5.03;;;;;;;;;;5126096;27;20428;-72
2021/10/27 19:21:45;;;;;;;9.15;4.63;;;;;;;;;;5111034;27;20110;-72
2021/10/27 19:24:20;;;;;;;7.35;4.30;;;;;;;;;;5106460;27;20150;-72
2021/10/27 19:27:00;;;;;;;12.02;4.88;;;;;;;;;;5104537;28;20024;-73
2021/10/27 19:29:31;;;;;;;10.98;4.35;;;;;;;;;;5084787;28;20020;-71
2021/10/27 19:34:54;;;;;;;9.38;5.35;;;;;;;;;;5094982;28;20479;-72
2021/10/27 20:07:40;;;;;;;14.82;5.93;;;;;;;;;;5103387;28;20123;-73
2021/10/27 20:55:12;;;;;;;8.63;5.90;;;;;;;;;;5082729;28;20259;-72
2021/10/27 20:57:57;;;;;;;8.73;6.05;;;;;;;;;;5101971;28;20391;-72
2021/10/27 21:14:00;;;;;;;12.15;6.70;;;;;;;;;;5083764;28;20042;-73
2021/10/27 21:16:27;;;;;;;11.70;7.60;;;;;;;;;;5084914;28;20972;-73
2021/10/27 21:18:55;;;;;;;12.57;6.90;;;;;;;;;;5094086;28;20791;-72
2021/10/27 21:21:22;;;;;;;17.13;7.93;;;;;;;;;;5083791;28;20161;-70
2021/10/27 21:23:48;;;;;;;13.50;7.47;;;;;;;;;;5090835;28;20020;-72
2021/10/27 21:26:18;;;;;;;13.43;7.65;;;;;;;;;;5089066;28;20027;-72
2021/10/27 21:31:27;;;;;;;11.93;7.50;;;;;;;;;;5082957;28;20108;-72